Time;durP1;ratioP1;P1;durP2;ratioP2;P2;SDS_P1;SDS_P2;PMS_P1;PMS_P2;Temp;Humidity;BMP_temperature;BMP_pressure;BME280_temperature;BME280_humidity;BME280_pressure;Samples;Min_cycle;Max_cycle;Signal;HPM_P1;HPM_P2
2020/12/25 00:00:43;;;;;;;1.00;0.90;;;4.40;99.90;;;;;;5013420;28;20203;-67
2020/12/25 00:03:14;;;;;;;0.93;0.90;;;4.40;99.90;;;;;;5013558;28;20536;-66
2020/12/25 00:05:43;;;;;;;1.53;0.80;;;4.40;99.90;;;;;;5013629;28;20574;-68
2020/12/25 00:08:08;;;;;;;1.00;0.90;;;4.50;99.90;;;;;;5013239;28;20470;-68
2020/12/25 00:10:34;;;;;;;0.87;0.80;;;4.40;99.90;;;;;;5013261;28;20418;-67
2020/12/25 00:12:59;;;;;;;1.43;0.83;;;4.40;99.90;;;;;;5013184;28;20180;-67
2020/12/25 00:15:25;;;;;;;1.17;0.70;;;4.40;99.90;;;;;;5013055;28;20536;-68
2020/12/25 00:17:51;;;;;;;0.73;0.73;;;4.40;99.90;;;;;;5012479;28;20237;-67
2020/12/25 00:20:16;;;;;;;0.80;0.80;;;4.40;99.90;;;;;;5013271;28;20179;-66
2020/12/25 00:22:42;;;;;;;1.43;1.00;;;4.40;99.90;;;;;;5013026;28;20180;-67
2020/12/25 00:25:07;;;;;;;1.00;0.80;;;4.40;99.90;;;;;;5013387;28;20172;-68
2020/12/25 00:27:33;;;;;;;0.90;0.80;;;4.40;99.90;;;;;;5012725;28;20634;-68
2020/12/25 00:29:58;;;;;;;1.20;1.00;;;4.40;99.90;;;;;;5012939;28;20228;-68
2020/12/25 00:32:24;;;;;;;1.33;0.90;;;4.40;99.90;;;;;;5013249;28;20216;-67
2020/12/25 00:34:49;;;;;;;0.80;0.70;;;4.40;99.90;;;;;;5012705;28;20204;-67
2020/12/25 00:37:15;;;;;;;0.60;0.60;;;4.40;99.90;;;;;;5012807;28;20485;-66
2020/12/25 00:39:41;;;;;;;2.43;0.97;;;4.40;99.90;;;;;;5012574;28;20626;-68
2020/12/25 00:42:06;;;;;;;1.03;0.73;;;4.30;99.90;;;;;;5012693;28;20191;-67
2020/12/25 00:44:32;;;;;;;0.60;0.60;;;4.30;99.90;;;;;;5012808;28;20243;-68
2020/12/25 00:46:57;;;;;;;0.63;0.50;;;4.30;99.90;;;;;;5012421;28;20180;-67
2020/12/25 00:49:23;;;;;;;0.67;0.60;;;4.30;99.90;;;;;;4995140;28;20174;-68
2020/12/25 00:51:49;;;;;;;0.90;0.70;;;4.30;99.90;;;;;;5012583;28;20200;-67
2020/12/25 00:54:14;;;;;;;0.60;0.53;;;4.30;99.90;;;;;;5013596;28;20525;-66
2020/12/25 00:56:40;;;;;;;0.67;0.67;;;4.20;99.90;;;;;;5012343;28;20164;-66
2020/12/25 00:59:05;;;;;;;0.70;0.70;;;4.20;99.90;;;;;;5022291;28;20263;-67
2020/12/25 01:01:31;;;;;;;1.07;0.70;;;4.20;99.90;;;;;;5020222;28;20677;-67
2020/12/25 01:03:56;;;;;;;0.70;0.70;;;4.20;99.90;;;;;;5023287;28;20640;-66
2020/12/25 01:06:22;;;;;;;0.70;0.70;;;4.20;99.90;;;;;;5023127;28;20167;-67
2020/12/25 01:08:49;;;;;;;1.50;0.80;;;4.10;99.90;;;;;;5017786;28;20212;-66
2020/12/25 01:11:17;;;;;;;1.63;0.87;;;4.10;99.90;;;;;;5020524;28;20271;-67
2020/12/25 01:13:44;;;;;;;0.97;0.77;;;4.20;99.90;;;;;;5003097;28;21650;-65
2020/12/25 01:16:15;;;;;;;1.90;1.10;;;4.20;99.90;;;;;;5019277;28;20415;-68
2020/12/25 01:18:44;;;;;;;1.60;1.37;;;4.20;99.90;;;;;;5014011;28;20489;-67
2020/12/25 01:21:10;;;;;;;3.70;0.97;;;4.30;99.90;;;;;;5021875;28;20493;-67
2020/12/25 01:23:36;;;;;;;1.37;1.10;;;4.30;99.90;;;;;;5019884;28;20423;-67
2020/12/25 01:26:02;;;;;;;1.43;1.00;;;4.30;99.90;;;;;;5017268;28;20775;-67
2020/12/25 01:28:28;;;;;;;2.23;1.20;;;4.30;99.90;;;;;;5014640;28;20286;-67
2020/12/25 01:30:53;;;;;;;1.37;1.20;;;4.30;99.90;;;;;;5029777;28;20898;-68
2020/12/25 01:33:19;;;;;;;2.00;1.60;;;4.30;99.90;;;;;;5015866;28;20183;-67
2020/12/25 01:35:44;;;;;;;1.73;1.60;;;4.30;99.90;;;;;;5015300;28;20179;-68
2020/12/25 01:38:10;;;;;;;2.37;1.67;;;4.40;99.90;;;;;;5027134;28;20535;-67
2020/12/25 01:40:36;;;;;;;3.87;1.53;;;4.40;99.90;;;;;;5025834;28;20277;-67
2020/12/25 01:43:01;;;;;;;3.43;1.73;;;4.40;99.90;;;;;;5017939;28;20180;-66
2020/12/25 01:45:28;;;;;;;2.20;1.53;;;4.50;99.90;;;;;;5022569;28;20262;-67
2020/12/25 01:47:58;;;;;;;2.90;1.30;;;4.50;99.90;;;;;;5017045;28;20200;-68
2020/12/25 01:50:25;;;;;;;2.13;1.57;;;4.40;99.90;;;;;;5018551;28;20429;-67
2020/12/25 01:52:53;;;;;;;3.90;1.80;;;4.50;99.90;;;;;;5012643;28;20422;-67
2020/12/25 01:55:25;;;;;;;2.80;1.67;;;4.40;99.90;;;;;;5021517;28;20470;-68
2020/12/25 01:57:55;;;;;;;2.57;2.37;;;4.40;99.90;;;;;;5026083;28;20958;-68
2020/12/25 02:00:22;;;;;;;2.43;1.80;;;4.50;99.90;;;;;;5024725;28;20423;-66
2020/12/25 02:02:48;;;;;;;3.33;2.10;;;4.50;99.90;;;;;;5029198;28;20414;-67
2020/12/25 02:05:13;;;;;;;2.30;2.03;;;4.50;99.90;;;;;;5015366;28;20427;-68
2020/12/25 02:07:39;;;;;;;3.63;2.47;;;4.50;99.90;;;;;;5019297;28;20596;-66
2020/12/25 02:10:05;;;;;;;4.23;2.23;;;4.50;99.90;;;;;;5023510;28;20191;-67
2020/12/25 02:12:32;;;;;;;3.67;2.20;;;4.50;99.90;;;;;;5019731;28;20172;-68
2020/12/25 02:14:58;;;;;;;3.97;2.60;;;4.60;99.90;;;;;;5020014;28;20187;-67
2020/12/25 02:17:23;;;;;;;2.87;2.47;;;4.60;99.90;;;;;;5024659;28;20436;-67
2020/12/25 02:19:49;;;;;;;4.53;2.60;;;4.60;99.90;;;;;;5022058;28;20649;-68
2020/12/25 02:22:14;;;;;;;4.73;3.30;;;4.60;99.90;;;;;;5019894;28;20225;-67
2020/12/25 02:24:40;;;;;;;4.17;2.57;;;4.60;99.90;;;;;;5019026;28;20175;-67
2020/12/25 02:27:05;;;;;;;4.00;2.67;;;4.60;99.90;;;;;;5016403;28;20184;-66
2020/12/25 02:29:31;;;;;;;5.33;3.30;;;4.70;99.90;;;;;;5016876;28;20216;-68
2020/12/25 02:31:57;;;;;;;3.50;2.73;;;4.70;99.90;;;;;;5026295;28;20549;-68
2020/12/25 02:34:22;;;;;;;5.77;2.57;;;4.70;99.90;;;;;;5018445;28;20169;-68
2020/12/25 02:36:48;;;;;;;5.23;2.90;;;4.70;99.90;;;;;;5019852;28;20231;-68
2020/12/25 02:39:13;;;;;;;4.43;2.80;;;4.70;99.90;;;;;;5016420;28;20173;-67
2020/12/25 02:41:39;;;;;;;6.20;3.10;;;4.70;99.90;;;;;;5017473;28;20693;-68
2020/12/25 02:44:05;;;;;;;4.07;3.03;;;4.70;99.90;;;;;;5028787;28;20179;-67
2020/12/25 02:46:30;;;;;;;6.57;3.63;;;4.60;99.90;;;;;;5024845;28;20580;-67
2020/12/25 02:48:56;;;;;;;6.30;3.77;;;4.70;99.90;;;;;;5026805;28;20200;-68
2020/12/25 02:51:21;;;;;;;6.53;3.50;;;4.70;99.90;;;;;;5002134;28;20174;-67
2020/12/25 02:53:47;;;;;;;7.87;3.60;;;4.60;99.90;;;;;;5020367;28;20532;-67
2020/12/25 02:56:17;;;;;;;4.73;3.53;;;4.70;99.90;;;;;;5016161;28;20208;-69
2020/12/25 02:58:43;;;;;;;5.13;3.70;;;4.70;99.90;;;;;;5014630;28;20180;-68
2020/12/25 03:01:13;;;;;;;4.13;3.63;;;4.60;99.90;;;;;;5014550;28;20407;-67
2020/12/25 03:03:47;;;;;;;8.50;3.97;;;4.60;99.90;;;;;;5014300;28;20180;-68
2020/12/25 03:06:12;;;;;;;5.57;3.70;;;4.60;99.90;;;;;;5014490;28;20423;-68
2020/12/25 03:08:38;;;;;;;6.40;3.70;;;4.60;99.90;;;;;;5014602;28;20459;-68
2020/12/25 03:11:05;;;;;;;5.40;4.03;;;4.70;99.90;;;;;;5014748;28;20196;-67
2020/12/25 03:13:31;;;;;;;4.63;3.57;;;4.80;99.90;;;;;;5013391;28;20758;-66
2020/12/25 03:15:57;;;;;;;6.33;3.40;;;4.90;99.90;;;;;;5014371;28;20793;-67
2020/12/25 03:18:22;;;;;;;6.80;3.73;;;4.90;99.90;;;;;;5014154;28;20427;-68
2020/12/25 03:20:48;;;;;;;7.30;3.80;;;5.00;99.90;;;;;;5014289;28;20184;-68
2020/12/25 03:23:14;;;;;;;5.20;3.77;;;5.00;99.90;;;;;;4996743;28;20172;-67
2020/12/25 03:25:40;;;;;;;4.93;3.60;;;5.00;99.90;;;;;;5014143;28;20176;-68
2020/12/25 03:28:06;;;;;;;6.30;3.20;;;4.90;99.90;;;;;;5014083;28;20654;-67
2020/12/25 03:30:32;;;;;;;3.90;3.03;;;4.90;99.90;;;;;;5014443;28;20495;-67
2020/12/25 03:32:58;;;;;;;8.03;3.67;;;4.90;99.90;;;;;;5013826;28;20231;-67
2020/12/25 03:35:24;;;;;;;10.27;3.63;;;4.80;99.90;;;;;;5013983;28;20168;-68
2020/12/25 03:37:49;;;;;;;5.27;3.77;;;4.70;99.90;;;;;;4996346;28;20188;-68
2020/12/25 03:40:15;;;;;;;8.20;4.23;;;4.70;99.90;;;;;;5013726;28;20472;-68
2020/12/25 03:42:40;;;;;;;5.20;3.63;;;4.60;99.90;;;;;;5014114;28;20180;-66
2020/12/25 03:45:06;;;;;;;5.20;3.30;;;4.70;99.90;;;;;;5013763;28;20180;-69
2020/12/25 03:47:32;;;;;;;4.60;3.23;;;4.70;99.90;;;;;;5013769;28;20204;-67
2020/12/25 03:49:58;;;;;;;3.83;3.43;;;4.70;99.90;;;;;;5013661;28;20423;-67
2020/12/25 03:52:24;;;;;;;4.00;3.20;;;4.60;99.90;;;;;;4994677;28;20199;-67
2020/12/25 03:54:50;;;;;;;4.33;3.47;;;4.70;99.90;;;;;;5015479;28;20177;-68
2020/12/25 03:57:15;;;;;;;6.50;3.50;;;4.60;99.90;;;;;;5021720;28;20180;-68
2020/12/25 03:59:41;;;;;;;5.23;3.60;;;4.60;99.90;;;;;;5024963;28;20184;-68
2020/12/25 04:02:06;;;;;;;6.20;3.83;;;4.60;99.90;;;;;;5025299;28;20188;-66
2020/12/25 04:04:32;;;;;;;4.77;3.17;;;4.60;99.90;;;;;;5017488;28;20216;-67
2020/12/25 04:06:57;;;;;;;4.37;3.43;;;4.60;99.90;;;;;;5020553;28;20851;-68
2020/12/25 04:09:24;;;;;;;9.17;3.47;;;4.60;99.90;;;;;;5021433;28;20173;-66
2020/12/25 04:11:50;;;;;;;5.80;3.03;;;4.60;99.90;;;;;;5021586;28;20183;-67
2020/12/25 04:14:19;;;;;;;3.77;3.30;;;4.60;99.90;;;;;;5021380;28;20440;-67
2020/12/25 04:16:45;;;;;;;4.33;3.50;;;4.60;99.90;;;;;;5014991;28;20548;-67
2020/12/25 04:19:11;;;;;;;4.80;3.17;;;4.60;99.90;;;;;;5026053;28;20436;-67
2020/12/25 04:21:40;;;;;;;3.80;3.20;;;4.60;99.90;;;;;;5022639;28;20184;-66
2020/12/25 04:24:06;;;;;;;10.30;3.60;;;4.60;99.90;;;;;;5022804;28;20250;-66
2020/12/25 04:26:31;;;;;;;8.70;3.40;;;4.60;99.90;;;;;;5023071;28;20882;-68
2020/12/25 04:28:57;;;;;;;8.00;4.13;;;4.60;99.90;;;;;;5022979;28;20211;-68
2020/12/25 04:31:27;;;;;;;5.23;2.97;;;4.60;99.90;;;;;;5022596;28;20234;-69
2020/12/25 04:33:54;;;;;;;4.77;3.00;;;4.50;99.90;;;;;;5022578;28;20188;-67
2020/12/25 04:36:20;;;;;;;5.17;3.40;;;4.50;99.90;;;;;;5017614;28;20419;-69
2020/12/25 04:38:46;;;;;;;4.37;2.53;;;4.50;99.90;;;;;;5019954;28;20426;-68
2020/12/25 04:41:12;;;;;;;5.20;3.23;;;4.40;99.90;;;;;;5029841;28;20517;-67
2020/12/25 04:43:41;;;;;;;3.80;3.43;;;4.40;99.90;;;;;;5020019;28;20514;-68
2020/12/25 04:46:08;;;;;;;5.23;3.13;;;4.30;99.90;;;;;;5028455;28;20419;-68
2020/12/25 04:48:38;;;;;;;7.10;3.50;;;4.30;99.90;;;;;;5024048;28;20541;-68
2020/12/25 04:51:04;;;;;;;4.77;3.60;;;4.30;99.90;;;;;;5029400;28;20463;-66
2020/12/25 04:53:31;;;;;;;6.77;3.07;;;4.30;99.90;;;;;;5020739;28;20478;-67
2020/12/25 04:55:57;;;;;;;4.43;3.20;;;4.30;99.90;;;;;;5021140;28;20461;-69
2020/12/25 04:58:23;;;;;;;4.87;3.70;;;4.20;99.90;;;;;;5026591;28;20419;-67
2020/12/25 05:01:21;;;;;;;4.67;3.30;;;4.20;99.90;;;;;;5018405;28;20945;-68
2020/12/25 05:03:46;;;;;;;4.07;3.47;;;4.20;99.90;;;;;;4997199;28;20266;-67
2020/12/25 05:06:17;;;;;;;4.70;3.30;;;4.20;99.90;;;;;;5023542;28;20896;-68
2020/12/25 05:08:50;;;;;;;4.73;3.17;;;4.20;99.90;;;;;;5023490;28;20295;-66
2020/12/25 05:11:20;;;;;;;5.43;3.20;;;4.10;99.90;;;;;;5019808;28;20419;-67
2020/12/25 05:13:52;;;;;;;4.37;3.23;;;4.10;99.90;;;;;;5021919;28;20449;-67
2020/12/25 05:16:20;;;;;;;4.90;3.30;;;4.10;99.90;;;;;;5018925;28;20426;-67
2020/12/25 05:18:47;;;;;;;4.87;3.47;;;4.20;99.90;;;;;;5020538;28;20418;-68
2020/12/25 05:21:21;;;;;;;3.63;3.17;;;4.10;99.90;;;;;;5015876;28;20416;-67
2020/12/25 05:23:49;;;;;;;5.73;3.20;;;4.20;99.90;;;;;;5025535;28;20484;-66
2020/12/25 05:26:16;;;;;;;7.07;3.40;;;4.10;99.90;;;;;;5021017;28;20421;-68
2020/12/25 05:28:48;;;;;;;3.90;3.13;;;4.20;99.90;;;;;;5021672;28;20541;-67
2020/12/25 05:31:15;;;;;;;3.50;3.20;;;4.20;99.90;;;;;;5024557;28;20467;-67
2020/12/25 05:33:41;;;;;;;3.90;2.60;;;4.20;99.90;;;;;;5025022;28;20428;-68
2020/12/25 05:36:11;;;;;;;5.70;2.83;;;4.30;99.90;;;;;;5017312;28;20422;-67
2020/12/25 05:38:39;;;;;;;5.00;2.97;;;4.30;99.90;;;;;;5018752;28;20426;-67
2020/12/25 05:41:06;;;;;;;3.40;3.10;;;4.30;99.90;;;;;;5026637;28;20825;-66
2020/12/25 05:43:32;;;;;;;3.97;3.23;;;4.30;99.90;;;;;;5016900;28;20765;-67
2020/12/25 05:45:58;;;;;;;4.97;3.47;;;4.30;99.90;;;;;;5025188;28;20418;-68
2020/12/25 05:48:23;;;;;;;5.93;3.63;;;4.20;99.90;;;;;;5026970;28;20465;-67
2020/12/25 05:50:50;;;;;;;4.97;3.80;;;4.20;99.90;;;;;;5019903;28;20184;-69
2020/12/25 05:53:16;;;;;;;5.90;4.70;;;4.20;99.90;;;;;;5021439;28;20180;-68
2020/12/25 05:55:42;;;;;;;5.53;4.07;;;4.10;99.90;;;;;;5018379;28;20508;-66
2020/12/25 05:58:12;;;;;;;4.97;4.00;;;4.10;99.90;;;;;;5019640;28;20789;-67
2020/12/25 06:00:40;;;;;;;6.37;4.20;;;4.00;99.90;;;;;;5008357;28;20415;-68
2020/12/25 06:03:10;;;;;;;5.57;4.97;;;4.10;99.90;;;;;;5018484;28;20930;-68
2020/12/25 06:05:38;;;;;;;5.33;4.27;;;4.00;99.90;;;;;;5022800;28;20505;-67
2020/12/25 06:08:26;;;;;;;7.00;4.10;;;4.00;99.90;;;;;;5024402;28;20454;-66
2020/12/25 06:11:02;;;;;;;7.93;4.53;;;4.00;99.90;;;;;;5025285;28;20411;-68
2020/12/25 06:13:42;;;;;;;5.50;4.07;;;4.00;99.90;;;;;;5030785;28;20422;-68
2020/12/25 06:16:14;;;;;;;7.20;4.47;;;4.10;99.90;;;;;;5034294;28;20486;-68
2020/12/25 06:18:55;;;;;;;9.17;4.50;;;4.20;99.90;;;;;;5022946;28;20455;-67
2020/12/25 06:21:49;;;;;;;6.50;4.20;;;4.30;99.90;;;;;;5027306;28;20414;-66
2020/12/25 06:24:17;;;;;;;6.43;4.27;;;4.30;99.90;;;;;;5031703;28;20760;-67
2020/12/25 06:26:43;;;;;;;5.70;3.67;;;4.40;99.90;;;;;;5027957;28;20517;-68
2020/12/25 06:29:15;;;;;;;5.87;4.60;;;4.40;99.90;;;;;;5029262;28;20537;-68
2020/12/25 06:31:45;;;;;;;5.57;4.30;;;4.40;99.90;;;;;;5033174;28;20302;-67
2020/12/25 06:34:11;;;;;;;4.90;3.93;;;4.50;99.90;;;;;;5026773;28;20414;-68
2020/12/25 06:36:45;;;;;;;5.97;3.67;;;4.40;99.90;;;;;;5028693;28;20423;-67
2020/12/25 06:39:17;;;;;;;8.00;4.63;;;4.40;99.90;;;;;;5034450;28;20497;-68
2020/12/25 06:41:43;;;;;;;4.90;4.00;;;4.40;99.90;;;;;;5024934;28;20425;-67
2020/12/25 06:44:13;;;;;;;7.60;4.33;;;4.40;99.90;;;;;;5027956;28;20427;-66
2020/12/25 06:46:46;;;;;;;5.60;4.50;;;4.30;99.90;;;;;;5030731;28;20433;-67
2020/12/25 06:49:14;;;;;;;5.40;4.27;;;4.40;99.90;;;;;;5026511;28;20948;-68
2020/12/25 06:51:47;;;;;;;4.93;4.17;;;4.40;99.90;;;;;;5023038;28;20414;-68
2020/12/25 06:54:21;;;;;;;5.23;4.30;;;4.40;99.90;;;;;;5021915;28;20411;-68
2020/12/25 06:56:53;;;;;;;5.77;4.40;;;4.50;99.90;;;;;;5035070;28;20992;-66
2020/12/25 06:59:21;;;;;;;6.63;4.13;;;4.50;99.90;;;;;;5026311;28;20896;-66
2020/12/25 07:01:48;;;;;;;6.23;4.20;;;4.40;99.90;;;;;;5032036;28;20777;-66
2020/12/25 07:04:27;;;;;;;7.93;4.10;;;4.40;99.90;;;;;;5033054;28;20438;-68
2020/12/25 07:07:03;;;;;;;4.90;4.40;;;4.50;99.90;;;;;;5026695;28;20421;-67
2020/12/25 07:09:40;;;;;;;4.73;4.00;;;4.60;99.90;;;;;;5027053;28;20431;-68
2020/12/25 07:12:13;;;;;;;4.27;3.87;;;4.60;99.90;;;;;;5022173;28;20919;-68
2020/12/25 07:14:39;;;;;;;4.23;3.83;;;4.70;99.90;;;;;;5027511;28;20466;-66
2020/12/25 07:17:05;;;;;;;4.13;3.60;;;4.60;99.90;;;;;;5017306;28;20407;-69
2020/12/25 07:19:30;;;;;;;3.93;3.53;;;4.60;99.90;;;;;;5023301;28;20629;-66
2020/12/25 07:21:56;;;;;;;5.93;4.43;;;4.60;99.90;;;;;;5017602;28;20175;-67
2020/12/25 07:24:22;;;;;;;5.23;3.80;;;4.60;99.90;;;;;;5027938;28;20667;-67
2020/12/25 07:26:52;;;;;;;6.17;4.17;;;4.60;99.90;;;;;;5017698;28;20227;-68
2020/12/25 07:29:19;;;;;;;5.37;3.63;;;4.60;99.90;;;;;;5014231;28;20953;-67
2020/12/25 07:31:46;;;;;;;4.83;4.33;;;4.60;99.90;;;;;;5025276;28;20411;-67
2020/12/25 07:34:25;;;;;;;6.23;4.00;;;4.60;99.90;;;;;;5033688;28;20442;-67
2020/12/25 07:36:52;;;;;;;5.80;4.70;;;4.60;99.90;;;;;;5026539;28;20446;-69
2020/12/25 07:39:20;;;;;;;6.07;4.47;;;4.60;99.90;;;;;;5033761;28;20508;-66
2020/12/25 07:41:46;;;;;;;7.00;4.77;;;4.60;99.90;;;;;;5012935;28;20427;-67
2020/12/25 07:44:12;;;;;;;6.90;4.30;;;4.70;99.90;;;;;;5032935;28;20533;-66
2020/12/25 07:46:39;;;;;;;6.40;4.67;;;4.70;99.90;;;;;;5033530;28;21071;-68
2020/12/25 07:49:06;;;;;;;6.73;4.83;;;4.60;99.90;;;;;;5025144;28;20300;-67
2020/12/25 07:51:33;;;;;;;7.00;5.03;;;4.60;99.90;;;;;;5029212;28;20411;-67
2020/12/25 07:54:00;;;;;;;6.87;5.30;;;4.60;99.90;;;;;;5022208;28;20422;-68
2020/12/25 07:56:30;;;;;;;6.30;5.20;;;4.60;99.90;;;;;;5015517;28;20839;-67
2020/12/25 07:58:57;;;;;;;8.73;5.77;;;4.60;99.90;;;;;;5013414;28;20423;-67
2020/12/25 08:01:25;;;;;;;7.80;5.20;;;4.70;99.90;;;;;;5013420;28;20427;-67
2020/12/25 08:03:58;;;;;;;6.80;4.73;;;4.70;99.90;;;;;;5013703;28;20470;-69
2020/12/25 08:06:25;;;;;;;7.07;4.67;;;4.70;99.90;;;;;;5012549;28;20784;-67
2020/12/25 08:08:58;;;;;;;7.20;4.80;;;4.70;99.90;;;;;;5013223;28;20522;-68
2020/12/25 08:11:25;;;;;;;5.53;5.03;;;4.80;99.90;;;;;;5013147;28;20937;-67
2020/12/25 08:13:53;;;;;;;5.93;3.93;;;4.90;99.90;;;;;;5013214;28;22023;-66
2020/12/25 08:16:19;;;;;;;8.27;4.87;;;4.90;99.90;;;;;;5012017;28;20412;-67
2020/12/25 08:18:49;;;;;;;6.90;4.37;;;4.90;99.90;;;;;;5013497;28;21164;-68
2020/12/25 08:21:18;;;;;;;6.60;3.80;;;5.00;99.90;;;;;;5013346;28;20782;-67
2020/12/25 08:23:44;;;;;;;5.90;4.07;;;5.00;99.90;;;;;;5013503;28;20494;-67
2020/12/25 08:26:11;;;;;;;5.73;4.03;;;5.20;99.90;;;;;;5013589;28;20450;-68
2020/12/25 08:28:37;;;;;;;5.93;3.80;;;5.10;99.90;;;;;;5013310;28;20258;-67
2020/12/25 08:31:15;;;;;;;4.53;3.63;;;5.20;99.90;;;;;;5013199;28;20507;-67
2020/12/25 08:33:40;;;;;;;4.77;3.70;;;5.20;99.90;;;;;;5012050;28;20180;-68
2020/12/25 08:36:10;;;;;;;7.57;4.33;;;5.20;99.90;;;;;;5013318;28;20422;-68
2020/12/25 08:38:43;;;;;;;4.77;3.70;;;5.20;99.90;;;;;;5012390;28;20264;-68
2020/12/25 08:41:09;;;;;;;4.00;3.60;;;5.20;99.90;;;;;;5013053;28;20432;-67
2020/12/25 08:43:35;;;;;;;6.07;3.90;;;5.30;99.90;;;;;;5012765;28;20434;-68
2020/12/25 08:46:03;;;;;;;5.43;4.03;;;5.30;99.90;;;;;;5013114;28;20423;-67
2020/12/25 08:48:29;;;;;;;5.73;3.70;;;5.30;99.90;;;;;;5012750;28;20224;-68
2020/12/25 08:51:15;;;;;;;5.37;3.73;;;5.20;99.90;;;;;;5013060;28;20478;-67
2020/12/25 08:53:50;;;;;;;3.87;3.50;;;5.20;99.90;;;;;;5012717;28;20415;-68
2020/12/25 08:56:23;;;;;;;5.47;3.90;;;5.10;99.90;;;;;;5013969;28;20807;-68
2020/12/25 08:58:59;;;;;;;5.50;3.47;;;5.20;99.90;;;;;;5012740;28;20427;-67
2020/12/25 09:01:27;;;;;;;4.53;4.03;;;5.10;99.90;;;;;;5013075;28;20958;-67
2020/12/25 09:03:53;;;;;;;4.00;3.30;;;5.10;99.90;;;;;;5011685;28;20439;-68
2020/12/25 09:06:19;;;;;;;3.83;3.20;;;5.20;99.90;;;;;;5012615;28;20438;-67
2020/12/25 09:08:44;;;;;;;5.60;3.23;;;5.20;99.90;;;;;;5012361;28;20467;-66
2020/12/25 09:11:16;;;;;;;5.77;3.40;;;5.10;99.90;;;;;;5012850;28;20174;-67
2020/12/25 09:13:42;;;;;;;5.27;3.60;;;5.20;99.90;;;;;;5012050;28;20168;-67
2020/12/25 09:16:08;;;;;;;4.47;3.40;;;5.10;99.90;;;;;;5011933;28;20423;-65
2020/12/25 09:18:35;;;;;;;4.37;3.53;;;5.10;99.90;;;;;;5012131;28;20434;-68
2020/12/25 09:21:01;;;;;;;5.30;3.13;;;5.20;99.90;;;;;;5011750;28;20916;-66
2020/12/25 09:23:28;;;;;;;4.43;3.23;;;5.20;99.90;;;;;;5011808;28;20503;-67
2020/12/25 09:25:53;;;;;;;4.50;3.30;;;5.30;99.90;;;;;;5011974;28;20679;-68
2020/12/25 09:28:19;;;;;;;4.13;3.23;;;5.30;99.90;;;;;;5011675;28;20491;-67
2020/12/25 09:30:44;;;;;;;5.53;3.63;;;5.30;99.90;;;;;;5011951;28;20180;-67
2020/12/25 09:33:10;;;;;;;4.03;3.30;;;5.20;99.90;;;;;;5011531;28;20176;-66
2020/12/25 09:35:35;;;;;;;4.10;3.40;;;5.20;99.90;;;;;;5011869;28;20607;-67
2020/12/25 09:38:01;;;;;;;4.80;3.40;;;5.10;99.90;;;;;;5011619;28;20689;-66
2020/12/25 09:40:27;;;;;;;4.43;3.50;;;5.10;99.90;;;;;;5010327;28;20533;-66
2020/12/25 09:42:52;;;;;;;4.43;3.40;;;5.20;99.90;;;;;;5011810;28;20180;-67
2020/12/25 09:45:18;;;;;;;4.77;3.13;;;5.20;99.90;;;;;;5011255;28;20180;-68
2020/12/25 09:47:44;;;;;;;4.57;3.10;;;5.30;99.90;;;;;;5011440;28;20195;-67
2020/12/25 09:50:09;;;;;;;4.93;3.07;;;5.30;99.90;;;;;;5010863;28;20660;-66
2020/12/25 09:52:35;;;;;;;4.03;2.97;;;5.30;99.90;;;;;;5011315;28;20189;-68
2020/12/25 09:55:01;;;;;;;6.50;3.80;;;5.20;99.90;;;;;;5011533;28;20226;-66
2020/12/25 09:57:27;;;;;;;4.73;2.67;;;5.20;99.90;;;;;;5012944;28;20227;-67
2020/12/25 09:59:55;;;;;;;6.73;3.23;;;5.30;99.90;;;;;;5012614;28;20184;-67
2020/12/25 10:02:21;;;;;;;3.00;2.70;;;5.20;99.90;;;;;;5011747;28;20180;-67
2020/12/25 10:04:47;;;;;;;4.73;3.03;;;5.30;99.90;;;;;;5011281;28;20450;-67
2020/12/25 10:07:12;;;;;;;4.13;2.90;;;5.30;99.90;;;;;;5011008;28;20267;-67
2020/12/25 10:09:38;;;;;;;4.67;3.37;;;5.20;99.90;;;;;;5011392;28;20184;-67
2020/12/25 10:12:04;;;;;;;4.10;3.00;;;5.30;99.90;;;;;;5011366;28;20179;-66
2020/12/25 10:14:30;;;;;;;5.73;2.90;;;5.30;99.90;;;;;;5011476;28;20498;-66
2020/12/25 10:16:56;;;;;;;5.87;2.50;;;5.30;99.90;;;;;;5011265;28;20185;-67
2020/12/25 10:19:22;;;;;;;3.50;3.20;;;5.20;99.90;;;;;;5011269;28;20612;-67
2020/12/25 10:21:49;;;;;;;6.07;3.50;;;5.20;99.90;;;;;;5011267;28;20451;-66
2020/12/25 10:24:15;;;;;;;4.57;3.27;;;5.30;99.90;;;;;;5011101;28;20631;-67
2020/12/25 10:26:40;;;;;;;4.87;2.80;;;5.30;99.90;;;;;;5010977;28;20422;-67
2020/12/25 10:29:06;;;;;;;3.00;2.60;;;5.60;99.90;;;;;;5010881;28;20208;-67
2020/12/25 10:31:32;;;;;;;3.63;2.47;;;5.60;99.90;;;;;;5011375;28;20223;-68
2020/12/25 10:33:58;;;;;;;5.00;2.83;;;5.60;99.50;;;;;;5010857;28;20601;-66
2020/12/25 10:36:24;;;;;;;2.97;2.67;;;5.60;99.30;;;;;;5010906;28;20456;-68
2020/12/25 10:38:51;;;;;;;3.03;2.40;;;5.60;99.00;;;;;;5010934;28;20203;-68
2020/12/25 10:41:16;;;;;;;3.30;2.30;;;5.60;98.50;;;;;;5010709;28;20428;-67
2020/12/25 10:43:42;;;;;;;2.83;2.53;;;5.80;99.80;;;;;;5010908;28;20431;-66
2020/12/25 10:46:08;;;;;;;3.47;2.20;;;5.90;99.20;;;;;;5010503;28;20184;-67
2020/12/25 10:48:33;;;;;;;3.90;2.80;;;6.10;99.60;;;;;;5010511;28;20200;-68
2020/12/25 10:50:59;;;;;;;2.30;2.10;;;6.30;99.90;;;;;;5010938;28;20187;-69
2020/12/25 10:53:24;;;;;;;4.40;2.47;;;6.30;97.50;;;;;;5010950;28;20219;-68
2020/12/25 10:55:50;;;;;;;3.63;2.10;;;6.30;97.90;;;;;;5012739;28;20235;-65
2020/12/25 10:58:15;;;;;;;3.93;2.33;;;6.20;98.50;;;;;;5011101;28;20647;-66
2020/12/25 11:00:41;;;;;;;3.60;2.00;;;6.10;96.80;;;;;;5010966;28;20176;-68
2020/12/25 11:03:07;;;;;;;3.30;2.00;;;5.80;96.50;;;;;;5013881;28;20729;-68
2020/12/25 11:05:32;;;;;;;3.43;2.20;;;5.80;97.30;;;;;;5014488;28;20184;-67
2020/12/25 11:07:58;;;;;;;4.13;2.33;;;5.60;98.50;;;;;;5014933;28;20548;-66
2020/12/25 11:10:24;;;;;;;2.53;2.00;;;5.70;98.40;;;;;;5014675;28;20183;-66
2020/12/25 11:12:50;;;;;;;4.30;2.50;;;5.60;97.70;;;;;;5014931;28;20247;-67
2020/12/25 11:15:16;;;;;;;2.10;1.90;;;5.70;99.90;;;;;;5014432;28;20415;-67
2020/12/25 11:17:41;;;;;;;2.93;2.60;;;5.80;98.50;;;;;;5013879;28;20187;-67
2020/12/25 11:20:07;;;;;;;2.90;1.70;;;6.00;99.50;;;;;;5013771;28;20181;-68
2020/12/25 11:22:32;;;;;;;2.57;1.90;;;5.80;96.90;;;;;;5013732;28;20259;-68
2020/12/25 11:24:58;;;;;;;2.67;1.87;;;5.90;98.10;;;;;;5014411;28;20244;-69
2020/12/25 11:27:24;;;;;;;2.73;2.10;;;5.80;95.90;;;;;;5014288;28;20196;-69
2020/12/25 11:29:49;;;;;;;7.73;3.07;;;5.60;96.00;;;;;;5013896;28;20188;-69
2020/12/25 11:32:15;;;;;;;1.90;1.70;;;5.80;99.20;;;;;;5014005;28;20732;-68
2020/12/25 11:34:40;;;;;;;2.20;1.80;;;6.40;98.30;;;;;;5013708;28;20655;-68
2020/12/25 11:37:06;;;;;;;2.03;1.83;;;6.50;94.60;;;;;;5013836;28;20639;-68
2020/12/25 11:39:31;;;;;;;2.90;1.83;;;6.70;94.50;;;;;;5013905;28;20203;-67
2020/12/25 11:41:57;;;;;;;2.13;1.60;;;7.10;98.10;;;;;;5013621;28;20580;-67
2020/12/25 11:44:23;;;;;;;3.43;2.30;;;7.00;94.10;;;;;;5013603;28;20578;-66
2020/12/25 11:46:48;;;;;;;2.03;1.60;;;7.40;97.60;;;;;;5013499;28;20169;-67
2020/12/25 11:49:14;;;;;;;4.37;1.93;;;7.60;93.80;;;;;;5013532;28;20739;-67
2020/12/25 11:51:39;;;;;;;6.50;2.03;;;8.00;93.20;;;;;;5013751;28;20224;-67
2020/12/25 11:54:05;;;;;;;3.93;2.37;;;8.50;94.10;;;;;;5013266;28;20187;-67
2020/12/25 11:56:31;;;;;;;2.17;1.40;;;8.70;88.10;;;;;;5014757;28;20605;-68
2020/12/25 11:59:01;;;;;;;2.07;1.20;;;8.90;90.50;;;;;;5013145;28;20196;-67
2020/12/25 12:01:27;;;;;;;2.07;1.20;;;8.90;90.10;;;;;;5013468;28;20180;-66
2020/12/25 12:03:53;;;;;;;2.80;1.40;;;8.60;88.50;;;;;;5012997;28;20778;-65
2020/12/25 12:06:20;;;;;;;2.00;1.40;;;8.70;94.20;;;;;;5012771;28;20415;-68
2020/12/25 12:08:45;;;;;;;3.00;1.80;;;8.70;90.40;;;;;;5013053;28;20259;-67
2020/12/25 12:11:12;;;;;;;2.87;1.30;;;8.80;90.30;;;;;;5012691;28;20767;-68
2020/12/25 12:13:37;;;;;;;2.33;1.20;;;9.50;93.10;;;;;;5011217;28;20536;-68
2020/12/25 12:16:03;;;;;;;1.77;1.27;;;10.10;92.50;;;;;;5011600;28;20420;-67
2020/12/25 12:18:29;;;;;;;1.50;1.10;;;10.50;86.10;;;;;;5011901;28;20231;-68
2020/12/25 12:20:54;;;;;;;1.70;1.37;;;11.20;84.50;;;;;;5013094;28;20172;-69
2020/12/25 12:23:20;;;;;;;1.60;1.00;;;11.60;79.80;;;;;;5012455;28;20185;-67
2020/12/25 12:25:46;;;;;;;1.73;0.97;;;12.00;79.70;;;;;;5012945;28;20187;-68
2020/12/25 12:28:11;;;;;;;2.63;1.20;;;12.20;82.10;;;;;;5012575;28;20535;-69
2020/12/25 12:30:37;;;;;;;2.13;1.10;;;12.00;77.50;;;;;;4995152;28;20192;-68
2020/12/25 12:33:02;;;;;;;1.37;1.20;;;11.50;76.30;;;;;;5012859;28;20183;-68
2020/12/25 12:35:28;;;;;;;2.57;1.17;;;12.20;77.00;;;;;;5012679;28;20682;-67
2020/12/25 12:37:54;;;;;;;2.40;1.00;;;12.80;78.30;;;;;;4994969;28;20172;-68
2020/12/25 12:40:20;;;;;;;1.13;0.93;;;13.60;75.20;;;;;;5012315;28;20202;-67
2020/12/25 12:42:45;;;;;;;1.70;1.00;;;13.70;67.50;;;;;;5011724;28;20168;-67
2020/12/25 12:45:11;;;;;;;1.17;1.07;;;14.20;63.50;;;;;;5012720;28;20195;-67
2020/12/25 12:47:37;;;;;;;1.63;1.00;;;14.50;65.70;;;;;;5012558;28;20192;-67
2020/12/25 12:50:05;;;;;;;1.53;1.10;;;14.30;61.50;;;;;;5012803;28;20587;-67
2020/12/25 12:52:30;;;;;;;1.40;1.07;;;14.60;68.50;;;;;;5012194;28;20259;-66
2020/12/25 12:54:56;;;;;;;2.70;1.10;;;14.50;64.90;;;;;;5012332;28;20263;-69